createdAt,value
2023-04-21T00:00:31.740Z,75.80
2023-04-21T00:01:34.451Z,76.27
2023-04-21T00:02:40.070Z,76.47
2023-04-21T00:03:42.355Z,75.71
2023-04-21T00:04:47.277Z,75.82
2023-04-21T00:05:50.108Z,76.36
2023-04-21T00:06:53.396Z,76.39
2023-04-21T00:07:55.261Z,76.20
2023-04-21T00:08:57.084Z,76.27
2023-04-21T00:09:58.914Z,76.50
2023-04-21T00:11:00.745Z,76.21
2023-04-21T00:12:02.500Z,75.60
2023-04-21T00:13:04.302Z,75.75
2023-04-21T00:14:06.135Z,76.38
2023-04-21T00:15:08.251Z,76.71
2023-04-21T00:16:10.196Z,76.97
2023-04-21T00:17:11.969Z,76.94
2023-04-21T00:18:14.449Z,76.83
2023-04-21T00:19:16.285Z,76.34
2023-04-21T00:20:18.232Z,76.56
2023-04-21T00:21:20.104Z,76.30
2023-04-21T00:22:22.421Z,76.40
2023-04-21T00:23:25.128Z,76.08
2023-04-21T00:24:27.101Z,76.42
2023-04-21T00:25:28.917Z,76.31
2023-04-21T00:26:30.703Z,76.15
2023-04-21T00:27:32.502Z,76.04
2023-04-21T00:28:34.297Z,75.81
2023-04-21T00:29:36.208Z,75.44
2023-04-21T00:30:37.942Z,76.30
2023-04-21T00:31:39.761Z,77.04
2023-04-21T00:32:41.631Z,76.28
2023-04-21T00:33:43.529Z,76.57
2023-04-21T00:34:45.485Z,75.91
2023-04-21T00:35:47.309Z,75.96
2023-04-21T00:36:49.205Z,75.58
2023-04-21T00:37:51.192Z,76.52
2023-04-21T00:38:52.990Z,76.77
2023-04-21T00:39:54.745Z,76.84
2023-04-21T00:40:56.655Z,77.64
2023-04-21T00:41:58.478Z,77.84
2023-04-21T00:43:00.276Z,78.18
2023-04-21T00:44:09.784Z,78.56
2023-04-21T00:45:11.828Z,77.10
2023-04-21T00:46:13.631Z,76.93
2023-04-21T00:47:15.631Z,76.35
2023-04-21T00:48:17.662Z,76.44
2023-04-21T00:49:19.677Z,76.67
2023-04-21T00:50:21.614Z,76.98
2023-04-21T00:51:23.462Z,76.84
2023-04-21T00:52:25.545Z,76.72
2023-04-21T00:53:27.262Z,75.95
2023-04-21T00:54:29.131Z,76.16
2023-04-21T00:55:31.516Z,76.67
2023-04-21T00:56:34.015Z,76.67
2023-04-21T00:57:36.710Z,76.70
2023-04-21T00:58:40.633Z,76.67
2023-04-21T00:59:43.777Z,76.45
2023-04-21T01:00:45.723Z,76.44
2023-04-21T01:01:47.500Z,76.18
2023-04-21T01:02:49.603Z,76.21
2023-04-21T01:03:52.100Z,77.00
2023-04-21T01:04:54.216Z,77.16
2023-04-21T01:05:56.692Z,77.99
2023-04-21T01:06:59.203Z,79.35
2023-04-21T01:08:02.169Z,79.27
2023-04-21T01:09:06.928Z,78.75
2023-04-21T01:10:10.233Z,77.90
2023-04-21T01:11:12.666Z,78.27
2023-04-21T01:12:14.496Z,78.11
2023-04-21T01:13:19.645Z,78.16
2023-04-21T01:14:21.395Z,77.92
2023-04-21T01:15:23.223Z,78.15
2023-04-21T01:16:25.159Z,77.65
2023-04-21T01:17:27.263Z,78.34
2023-04-21T01:18:29.516Z,78.45
2023-04-21T01:19:33.527Z,78.08
2023-04-21T01:20:36.504Z,78.67
2023-04-21T01:21:42.079Z,78.74
2023-04-21T01:22:45.482Z,78.22
2023-04-21T01:23:47.385Z,78.24
2023-04-21T01:24:49.840Z,78.61
2023-04-21T01:25:52.239Z,78.06
2023-04-21T01:26:54.068Z,78.98
2023-04-21T01:27:55.832Z,79.14
2023-04-21T01:28:57.864Z,78.62
2023-04-21T01:29:59.738Z,78.58
2023-04-21T01:31:02.292Z,78.09
2023-04-21T01:32:05.660Z,78.19
2023-04-21T01:33:07.642Z,78.24
2023-04-21T01:34:10.947Z,77.48
2023-04-21T01:35:12.785Z,77.13
2023-04-21T01:36:14.659Z,77.59
2023-04-21T01:37:17.622Z,77.48
2023-04-21T01:38:19.779Z,76.74
2023-04-21T01:39:21.712Z,77.13
2023-04-21T01:40:23.497Z,77.10
2023-04-21T01:41:25.286Z,77.19
2023-04-21T01:42:28.490Z,78.34
2023-04-21T01:43:30.355Z,78.66
2023-04-21T01:44:32.226Z,78.34
2023-04-21T01:45:34.168Z,77.74
2023-04-21T01:46:36.023Z,77.38
2023-04-21T01:47:37.937Z,77.98
2023-04-21T01:48:39.695Z,78.10
2023-04-21T01:49:41.558Z,77.63
2023-04-21T01:50:43.373Z,77.14
2023-04-21T01:51:45.267Z,77.50
2023-04-21T01:52:47.043Z,78.07
2023-04-21T01:53:48.879Z,77.99
2023-04-21T01:54:50.911Z,77.27
2023-04-21T01:55:52.845Z,77.71
2023-04-21T01:56:54.732Z,77.25
2023-04-21T01:58:00.027Z,77.47
2023-04-21T01:59:01.884Z,76.73
2023-04-21T02:00:04.566Z,76.48
2023-04-21T02:01:06.346Z,76.65
2023-04-21T02:02:08.454Z,77.61
2023-04-21T02:03:10.419Z,77.50
2023-04-21T02:04:12.540Z,76.92
2023-04-21T02:05:14.393Z,77.62
2023-04-21T02:06:18.098Z,77.56
2023-04-21T02:07:21.266Z,77.89
2023-04-21T02:08:23.070Z,77.90
2023-04-21T02:09:24.959Z,77.93
2023-04-21T02:10:26.788Z,77.84
2023-04-21T02:11:28.554Z,78.17
2023-04-21T02:12:30.467Z,77.66
2023-04-21T02:13:32.208Z,77.78
2023-04-21T02:14:34.044Z,77.92
2023-04-21T02:15:37.324Z,77.93
2023-04-21T02:16:39.159Z,78.79
2023-04-21T02:17:43.144Z,78.06
2023-04-21T02:18:45.040Z,78.82
2023-04-21T02:19:48.162Z,78.87
2023-04-21T02:20:50.121Z,78.63
2023-04-21T02:21:51.966Z,78.25
2023-04-21T02:22:53.811Z,77.92
2023-04-21T02:23:55.692Z,77.54
2023-04-21T02:24:57.540Z,78.05
2023-04-21T02:25:59.392Z,77.51
2023-04-21T02:27:03.395Z,77.72
2023-04-21T02:28:05.226Z,77.60
2023-04-21T02:29:07.064Z,77.66
2023-04-21T02:30:09.225Z,77.28
2023-04-21T02:31:11.632Z,77.37
2023-04-21T02:32:25.009Z,78.11
2023-04-21T02:33:29.465Z,78.50
2023-04-21T02:34:31.247Z,78.30
2023-04-21T02:35:34.096Z,78.55
2023-04-21T02:36:35.940Z,78.37
2023-04-21T02:37:37.880Z,78.88
2023-04-21T02:38:40.264Z,78.88
2023-04-21T02:39:44.015Z,78.04
2023-04-21T02:40:45.849Z,78.96
2023-04-21T02:41:47.777Z,79.46
2023-04-21T02:42:49.656Z,80.06
2023-04-21T02:43:51.517Z,79.99
2023-04-21T02:44:53.369Z,80.38
2023-04-21T02:45:55.359Z,79.94
2023-04-21T02:46:57.167Z,79.72
2023-04-21T02:47:59.786Z,79.99
2023-04-21T02:49:01.703Z,80.43
2023-04-21T02:50:04.394Z,80.14
2023-04-21T02:51:06.203Z,79.31
2023-04-21T02:52:08.023Z,79.13
2023-04-21T02:53:09.754Z,78.81
2023-04-21T02:54:11.615Z,78.72
2023-04-21T02:55:13.384Z,78.59
2023-04-21T02:56:15.186Z,78.78
2023-04-21T02:57:17.313Z,79.25
2023-04-21T02:58:19.156Z,78.90
2023-04-21T02:59:21.447Z,79.42
2023-04-21T03:00:23.415Z,79.63
2023-04-21T03:01:25.279Z,80.75
2023-04-21T03:02:27.170Z,79.91
2023-04-21T03:03:29.507Z,80.81
2023-04-21T03:04:33.017Z,80.75
2023-04-21T03:05:34.896Z,80.12
2023-04-21T03:06:37.147Z,81.41
2023-04-21T03:07:39.146Z,81.78
2023-04-21T03:08:41.074Z,82.38
2023-04-21T03:09:42.941Z,82.13
2023-04-21T03:10:44.781Z,82.30
2023-04-21T03:11:46.564Z,82.46
2023-04-21T03:12:48.338Z,82.58
2023-04-21T03:13:50.138Z,83.14
2023-04-21T03:14:51.956Z,84.72
2023-04-21T03:15:53.808Z,84.81
2023-04-21T03:16:55.737Z,84.90
2023-04-21T03:17:57.714Z,84.69
2023-04-21T03:18:59.525Z,84.84
2023-04-21T03:20:01.470Z,84.09
2023-04-21T03:21:04.684Z,84.15
2023-04-21T03:22:06.814Z,83.76
2023-04-21T03:23:08.632Z,83.36
2023-04-21T03:24:10.394Z,82.31
2023-04-21T03:25:12.306Z,82.04
2023-04-21T03:26:14.098Z,82.70
2023-04-21T03:27:15.900Z,81.56
2023-04-21T03:28:17.986Z,82.08
2023-04-21T03:29:20.019Z,81.96
2023-04-21T03:30:22.606Z,81.56
2023-04-21T03:31:24.490Z,82.36
2023-04-21T03:32:26.316Z,81.24
2023-04-21T03:33:28.228Z,81.96
2023-04-21T03:34:30.026Z,81.83
2023-04-21T03:35:31.859Z,81.37
2023-04-21T03:36:33.680Z,81.26
2023-04-21T03:37:35.458Z,81.41
2023-04-21T03:38:37.289Z,81.77
2023-04-21T03:39:39.102Z,80.57
2023-04-21T03:40:41.311Z,82.10
2023-04-21T03:41:43.074Z,80.92
2023-04-21T03:42:44.861Z,80.90
2023-04-21T03:43:46.654Z,80.99
2023-04-21T03:44:48.495Z,80.57
2023-04-21T03:45:50.503Z,81.15
2023-04-21T03:46:55.651Z,80.21
2023-04-21T03:47:57.581Z,80.43
2023-04-21T03:49:00.216Z,80.80
2023-04-21T03:50:06.343Z,79.30
2023-04-21T03:51:08.120Z,80.56
2023-04-21T03:52:09.929Z,80.21
2023-04-21T03:53:12.585Z,79.74
2023-04-21T03:54:14.361Z,80.20
2023-04-21T03:55:16.167Z,79.27
2023-04-21T03:56:18.026Z,79.51
2023-04-21T03:57:19.888Z,79.69
2023-04-21T03:58:21.718Z,80.02
2023-04-21T03:59:23.482Z,79.15
2023-04-21T04:00:25.317Z,78.99
2023-04-21T04:01:27.124Z,79.33
2023-04-21T04:02:29.713Z,79.93
2023-04-21T04:03:31.733Z,79.89
2023-04-21T04:04:33.742Z,79.30
2023-04-21T04:05:38.668Z,79.23
2023-04-21T04:06:41.377Z,79.68
2023-04-21T04:07:44.611Z,79.58
2023-04-21T04:08:46.719Z,78.88
2023-04-21T04:09:48.516Z,79.39
2023-04-21T04:10:50.349Z,79.78
2023-04-21T04:11:52.241Z,79.91
2023-04-21T04:12:55.566Z,80.47
2023-04-21T04:13:57.305Z,80.18
2023-04-21T04:14:59.221Z,80.00
2023-04-21T04:16:01.544Z,80.85
2023-04-21T04:17:03.579Z,80.52
2023-04-21T04:18:05.547Z,80.62
2023-04-21T04:19:07.491Z,80.30
2023-04-21T04:20:10.688Z,80.86
2023-04-21T04:21:12.444Z,80.74
2023-04-21T04:22:14.310Z,81.10
2023-04-21T04:23:16.390Z,80.88
2023-04-21T04:24:18.133Z,80.01
2023-04-21T04:25:19.881Z,79.76
2023-04-21T04:26:24.952Z,80.22
2023-04-21T04:27:27.103Z,79.71
2023-04-21T04:28:29.456Z,80.23
2023-04-21T04:29:32.357Z,79.17
2023-04-21T04:30:35.532Z,79.75
2023-04-21T04:31:38.059Z,78.97
2023-04-21T04:32:39.991Z,79.24
2023-04-21T04:33:43.098Z,79.60
2023-04-21T04:34:44.882Z,79.37
2023-04-21T04:35:47.884Z,79.89
2023-04-21T04:36:50.530Z,79.99
2023-04-21T04:37:52.471Z,79.69
2023-04-21T04:38:54.336Z,80.40
2023-04-21T04:39:56.853Z,79.70
2023-04-21T04:40:59.218Z,79.15
2023-04-21T04:42:01.699Z,79.53
2023-04-21T04:43:03.795Z,80.57
2023-04-21T04:44:06.428Z,81.58
2023-04-21T04:45:09.522Z,81.44
2023-04-21T04:46:13.310Z,82.29
2023-04-21T04:47:15.566Z,82.68
2023-04-21T04:48:18.556Z,82.90
2023-04-21T04:49:21.694Z,83.65
2023-04-21T04:50:24.838Z,84.59
2023-04-21T04:51:26.666Z,85.29
2023-04-21T04:52:28.576Z,86.23
2023-04-21T04:53:30.436Z,86.55
2023-04-21T04:54:32.268Z,87.54
2023-04-21T04:55:34.082Z,88.24
2023-04-21T04:56:35.941Z,87.93
2023-04-21T04:57:37.761Z,88.90
2023-04-21T04:58:39.623Z,88.70
2023-04-21T04:59:41.396Z,87.98
2023-04-21T05:00:43.215Z,88.44
2023-04-21T05:01:45.197Z,87.94
2023-04-21T05:02:47.303Z,87.78
2023-04-21T05:03:49.457Z,88.66
2023-04-21T05:04:51.433Z,88.25
2023-04-21T05:05:54.435Z,87.65
2023-04-21T05:06:56.288Z,87.59
2023-04-21T05:07:58.992Z,87.75
2023-04-21T05:09:00.804Z,87.79
2023-04-21T05:10:04.813Z,87.95
2023-04-21T05:11:07.058Z,87.68
2023-04-21T05:12:08.855Z,87.75
2023-04-21T05:13:10.816Z,87.72
2023-04-21T05:14:12.648Z,87.35
2023-04-21T05:15:14.400Z,86.70
2023-04-21T05:16:16.376Z,86.93
2023-04-21T05:17:18.286Z,87.56
2023-04-21T05:18:20.077Z,87.14
2023-04-21T05:19:21.892Z,87.48
2023-04-21T05:20:23.818Z,87.69
2023-04-21T05:21:28.812Z,87.12
2023-04-21T05:22:30.610Z,87.71
2023-04-21T05:23:32.453Z,86.63
2023-04-21T05:24:34.608Z,86.63
2023-04-21T05:25:38.742Z,86.14
2023-04-21T05:26:40.586Z,86.13
2023-04-21T05:27:43.086Z,86.71
2023-04-21T05:28:44.951Z,87.01
2023-04-21T05:29:47.649Z,86.70
2023-04-21T05:30:49.522Z,86.86
2023-04-21T05:31:51.338Z,85.56
2023-04-21T05:32:53.232Z,86.00
2023-04-21T05:33:55.040Z,85.09
2023-04-21T05:34:56.948Z,85.09
2023-04-21T05:35:58.755Z,84.93
2023-04-21T05:37:00.629Z,84.57
2023-04-21T05:38:02.462Z,84.66
2023-04-21T05:39:04.297Z,84.49
2023-04-21T05:40:06.441Z,84.18
2023-04-21T05:41:08.804Z,84.40
2023-04-21T05:42:11.485Z,84.50
2023-04-21T05:43:14.609Z,84.84
2023-04-21T05:44:19.437Z,84.93
2023-04-21T05:45:21.414Z,84.56
2023-04-21T05:46:23.241Z,84.32
2023-04-21T05:47:25.080Z,84.28
2023-04-21T05:48:27.084Z,85.31
2023-04-21T05:49:28.966Z,85.45
2023-04-21T05:50:34.251Z,85.29
2023-04-21T05:51:36.117Z,85.11
2023-04-21T05:52:38.435Z,85.08
2023-04-21T05:53:40.585Z,85.47
2023-04-21T05:54:42.980Z,84.29
2023-04-21T05:55:44.711Z,84.50
2023-04-21T05:56:47.565Z,83.94
2023-04-21T05:57:49.296Z,84.02
2023-04-21T05:58:51.227Z,84.31
2023-04-21T05:59:53.009Z,83.95
2023-04-21T06:00:54.683Z,84.17
2023-04-21T06:01:56.422Z,84.34
2023-04-21T06:02:58.443Z,83.84
2023-04-21T06:04:01.722Z,84.59
2023-04-21T06:05:04.208Z,84.27
2023-04-21T06:06:06.753Z,85.17
2023-04-21T06:07:09.884Z,85.41
2023-04-21T06:08:11.766Z,85.52
2023-04-21T06:09:16.683Z,84.98
2023-04-21T06:10:18.821Z,85.29
2023-04-21T06:11:20.765Z,84.34
2023-04-21T06:12:22.456Z,84.98
2023-04-21T06:13:24.318Z,84.06
2023-04-21T06:14:26.150Z,84.93
2023-04-21T06:15:28.003Z,85.23
2023-04-21T06:16:32.637Z,85.21
2023-04-21T06:17:34.629Z,84.79
2023-04-21T06:18:36.467Z,84.71
2023-04-21T06:19:41.267Z,84.88
2023-04-21T06:20:49.817Z,84.06
2023-04-21T06:21:52.057Z,83.69
2023-04-21T06:22:54.325Z,83.69
2023-04-21T06:23:56.151Z,83.63
2023-04-21T06:24:58.821Z,83.37
2023-04-21T06:26:01.958Z,83.69
2023-04-21T06:27:03.984Z,83.57
2023-04-21T06:28:06.080Z,84.37
2023-04-21T06:29:07.962Z,84.11
2023-04-21T06:30:09.926Z,84.35
2023-04-21T06:31:15.608Z,84.41
2023-04-21T06:32:17.659Z,84.47
2023-04-21T06:33:19.381Z,84.15
2023-04-21T06:34:21.847Z,84.68
2023-04-21T06:35:24.784Z,85.15
2023-04-21T06:36:27.884Z,84.89
2023-04-21T06:37:29.735Z,84.36
2023-04-21T06:38:31.746Z,83.83
2023-04-21T06:39:33.532Z,83.75
2023-04-21T06:40:35.370Z,83.96
2023-04-21T06:41:37.134Z,83.77
2023-04-21T06:42:39.020Z,83.37
2023-04-21T06:43:41.089Z,83.30
2023-04-21T06:44:42.960Z,82.73
2023-04-21T06:45:45.688Z,82.85
2023-04-21T06:46:47.721Z,83.19
2023-04-21T06:47:49.625Z,83.16
2023-04-21T06:48:51.408Z,83.42
2023-04-21T06:49:53.259Z,83.44
2023-04-21T06:50:56.706Z,83.05
2023-04-21T06:51:58.576Z,83.38
2023-04-21T06:53:00.403Z,83.61
2023-04-21T06:54:02.289Z,83.47
2023-04-21T06:55:04.300Z,83.30
2023-04-21T06:56:06.698Z,83.12
2023-04-21T06:57:08.468Z,82.84
2023-04-21T06:58:10.185Z,83.08
2023-04-21T06:59:12.024Z,82.72
2023-04-21T07:00:14.091Z,82.42
2023-04-21T07:01:16.027Z,82.36
2023-04-21T07:02:17.867Z,81.79
2023-04-21T07:03:19.900Z,81.41
2023-04-21T07:04:22.015Z,80.33
2023-04-21T07:05:23.877Z,80.43
2023-04-21T07:06:26.054Z,79.59
2023-04-21T07:07:27.830Z,80.07
2023-04-21T07:08:29.694Z,79.73
2023-04-21T07:09:34.087Z,79.28
2023-04-21T07:10:36.198Z,78.61
2023-04-21T07:11:38.124Z,77.35
2023-04-21T07:12:39.910Z,75.16
2023-04-21T07:13:41.684Z,71.74
2023-04-21T07:14:43.485Z,72.34
2023-04-21T07:15:45.331Z,71.83
2023-04-21T07:16:47.293Z,69.10
2023-04-21T07:17:49.140Z,67.36
2023-04-21T07:18:51.036Z,67.22
2023-04-21T07:19:52.980Z,67.91
2023-04-21T07:20:54.771Z,65.15
2023-04-21T07:21:56.596Z,64.63
2023-04-21T07:22:58.392Z,65.01
2023-04-21T07:24:00.180Z,66.58
2023-04-21T07:25:06.553Z,63.53
2023-04-21T07:26:08.328Z,64.43
2023-04-21T07:27:10.242Z,62.15
2023-04-21T07:28:12.060Z,61.83
2023-04-21T07:29:13.863Z,60.28
2023-04-21T07:30:15.787Z,60.61
2023-04-21T07:31:17.657Z,61.51
2023-04-21T07:32:21.263Z,60.40
2023-04-21T07:33:23.055Z,59.85
2023-04-21T07:34:25.001Z,60.34
2023-04-21T07:35:27.459Z,59.47
2023-04-21T07:36:31.113Z,58.91
2023-04-21T07:37:33.256Z,58.55
2023-04-21T07:38:35.181Z,57.43
2023-04-21T07:39:36.948Z,56.05
2023-04-21T07:40:38.838Z,56.46
2023-04-21T07:41:40.917Z,55.21
2023-04-21T07:42:42.772Z,56.06
2023-04-21T07:43:44.586Z,55.94
2023-04-21T07:44:46.525Z,56.15
2023-04-21T07:45:48.373Z,56.40
2023-04-21T07:46:50.190Z,56.24
2023-04-21T07:47:52.179Z,55.43
2023-04-21T07:48:54.018Z,55.14
2023-04-21T07:49:56.462Z,55.37
2023-04-21T07:51:01.837Z,55.51
2023-04-21T07:52:03.637Z,55.25
2023-04-21T07:53:05.731Z,54.61
2023-04-21T07:54:07.621Z,54.64
2023-04-21T07:55:09.669Z,54.62
2023-04-21T07:56:13.425Z,55.11
2023-04-21T07:57:15.292Z,54.27
2023-04-21T07:58:17.265Z,52.23
2023-04-21T07:59:19.385Z,51.88
2023-04-21T08:00:21.465Z,52.42
2023-04-21T08:01:24.057Z,52.64
2023-04-21T08:02:26.089Z,52.37
2023-04-21T08:03:30.040Z,51.88
2023-04-21T08:04:32.356Z,53.00
2023-04-21T08:05:37.529Z,52.35
2023-04-21T08:06:42.203Z,53.28
2023-04-21T08:07:44.135Z,52.74
2023-04-21T08:08:46.132Z,52.90
2023-04-21T08:09:47.975Z,53.07
2023-04-21T08:10:49.853Z,51.79
2023-04-21T08:11:51.655Z,50.60
2023-04-21T08:12:53.457Z,51.29
2023-04-21T08:13:55.325Z,51.41
2023-04-21T08:14:57.133Z,50.87
2023-04-21T08:15:59.049Z,51.06
2023-04-21T08:17:01.163Z,50.55
2023-04-21T08:18:03.342Z,50.99
2023-04-21T08:19:05.823Z,50.78
2023-04-21T08:20:08.262Z,49.62
2023-04-21T08:21:10.075Z,51.00
2023-04-21T08:22:12.323Z,50.60
2023-04-21T08:23:14.930Z,49.69
2023-04-21T08:24:16.852Z,49.94
2023-04-21T08:25:18.704Z,50.35
2023-04-21T08:26:21.939Z,50.34
2023-04-21T08:27:23.711Z,49.74
2023-04-21T08:28:25.544Z,50.58
2023-04-21T08:29:27.705Z,50.23
2023-04-21T08:30:29.643Z,50.33
2023-04-21T08:31:31.657Z,49.42
2023-04-21T08:32:34.016Z,49.40
2023-04-21T08:33:39.258Z,48.32
2023-04-21T08:34:43.370Z,48.39
2023-04-21T08:35:59.306Z,49.38
2023-04-21T08:37:06.198Z,49.55
2023-04-21T08:38:09.646Z,50.29
2023-04-21T08:39:11.560Z,49.72
2023-04-21T08:40:13.789Z,50.75
2023-04-21T08:41:15.619Z,49.70
2023-04-21T08:42:18.117Z,48.24
2023-04-21T08:43:19.933Z,49.27
2023-04-21T08:44:21.912Z,49.45
2023-04-21T08:45:24.010Z,48.29
2023-04-21T08:46:26.577Z,49.54
2023-04-21T08:47:29.186Z,48.56
2023-04-21T08:48:31.837Z,48.43
2023-04-21T08:49:33.689Z,48.17
2023-04-21T08:50:36.928Z,46.50
2023-04-21T08:51:38.747Z,48.62
2023-04-21T08:52:40.560Z,47.80
2023-04-21T08:53:42.647Z,47.58
2023-04-21T08:54:44.686Z,49.28
2023-04-21T08:55:53.635Z,49.61
2023-04-21T08:57:14.152Z,48.89
2023-04-21T08:58:16.910Z,47.95
2023-04-21T08:59:18.954Z,48.82
2023-04-21T09:00:21.612Z,45.94
2023-04-21T09:01:23.526Z,47.40
2023-04-21T09:02:25.567Z,47.40
2023-04-21T09:03:28.018Z,46.28
2023-04-21T09:04:31.104Z,47.07
2023-04-21T09:05:33.961Z,46.21
2023-04-21T09:06:46.411Z,47.69
2023-04-21T09:07:48.353Z,47.17
2023-04-21T09:08:56.576Z,46.99
2023-04-21T09:09:58.848Z,46.38
2023-04-21T09:11:01.865Z,47.13
2023-04-21T09:12:03.780Z,46.66
2023-04-21T09:13:12.068Z,45.99
2023-04-21T09:14:13.860Z,45.50
2023-04-21T09:15:17.926Z,45.41
2023-04-21T09:16:24.090Z,45.87
2023-04-21T09:17:32.926Z,46.75
2023-04-21T09:18:36.909Z,46.25
2023-04-21T09:19:38.718Z,46.91
2023-04-21T09:20:40.794Z,46.71
2023-04-21T09:21:44.166Z,46.69
2023-04-21T09:22:46.034Z,45.53
2023-04-21T09:23:50.966Z,45.50
2023-04-21T09:25:00.446Z,45.33
2023-04-21T09:26:03.764Z,44.38
2023-04-21T09:27:05.774Z,44.39
2023-04-21T09:28:08.953Z,44.96
2023-04-21T09:29:10.780Z,46.70
2023-04-21T09:30:13.967Z,45.18
2023-04-21T09:31:25.412Z,46.26
2023-04-21T09:32:27.461Z,44.07
2023-04-21T09:33:42.254Z,44.90
2023-04-21T09:34:51.467Z,45.68
2023-04-21T09:35:54.976Z,43.29
2023-04-21T09:37:03.241Z,43.95
2023-04-21T09:38:09.921Z,45.69
2023-04-21T09:40:18.150Z,43.24
2023-04-21T09:41:20.247Z,46.23
2023-04-21T09:42:28.518Z,43.06
2023-04-21T09:43:30.561Z,45.12
2023-04-21T09:44:39.769Z,43.01
2023-04-21T09:45:53.558Z,43.33
2023-04-21T09:47:04.168Z,45.36
2023-04-21T09:48:07.977Z,46.30
2023-04-21T09:49:10.939Z,43.03
2023-04-21T09:50:13.573Z,43.22
2023-04-21T09:51:25.471Z,44.85
2023-04-21T09:52:34.917Z,44.22
2023-04-21T09:53:38.604Z,43.67
2023-04-21T09:54:45.896Z,42.02
2023-04-21T09:55:49.750Z,43.84
2023-04-21T09:56:53.747Z,42.59
2023-04-21T09:58:02.479Z,43.20
2023-04-21T09:59:06.719Z,42.95
2023-04-21T10:00:10.037Z,42.87
2023-04-21T10:01:13.066Z,41.54
2023-04-21T10:02:17.300Z,43.13
2023-04-21T10:03:21.259Z,43.12
2023-04-21T10:04:25.654Z,42.80
2023-04-21T10:05:29.079Z,42.98
2023-04-21T10:06:32.337Z,42.40
2023-04-21T10:07:34.130Z,42.67
2023-04-21T10:08:36.957Z,42.88
2023-04-21T10:09:41.740Z,42.75
2023-04-21T10:10:45.751Z,43.04
2023-04-21T10:11:47.700Z,41.05
2023-04-21T10:12:50.591Z,41.68
2023-04-21T10:13:52.452Z,41.47
2023-04-21T10:14:55.334Z,41.06
2023-04-21T10:16:09.811Z,41.17
2023-04-21T10:17:12.081Z,41.89
2023-04-21T10:18:19.036Z,41.53
2023-04-21T10:19:25.628Z,41.71
2023-04-21T10:20:27.444Z,41.90
2023-04-21T10:21:29.265Z,40.53
2023-04-21T10:22:32.452Z,40.42
2023-04-21T10:23:36.975Z,41.16
2023-04-21T10:24:42.942Z,41.71
2023-04-21T10:25:49.001Z,40.56
2023-04-21T10:26:54.049Z,40.31
2023-04-21T10:27:56.829Z,39.86
2023-04-21T10:29:00.037Z,39.52
2023-04-21T10:30:02.576Z,39.76
2023-04-21T10:31:40.033Z,40.92
2023-04-21T10:32:42.950Z,40.65
2023-04-21T10:34:06.078Z,40.52
2023-04-21T10:35:11.885Z,39.10
2023-04-21T10:36:15.866Z,39.32
2023-04-21T10:37:17.902Z,38.60
2023-04-21T10:38:34.071Z,40.56
2023-04-21T10:39:37.038Z,39.32
2023-04-21T10:41:44.525Z,38.18
2023-04-21T10:42:46.424Z,38.53
2023-04-21T10:43:51.036Z,37.27
2023-04-21T10:44:58.618Z,38.36
2023-04-21T10:46:00.579Z,38.29
2023-04-21T10:47:02.335Z,39.16
2023-04-21T10:48:13.619Z,38.65
2023-04-21T10:49:21.183Z,37.21
2023-04-21T10:50:29.867Z,37.80
2023-04-21T10:51:33.354Z,41.05
2023-04-21T10:52:35.095Z,37.63
2023-04-21T10:53:43.837Z,37.64
2023-04-21T10:54:50.139Z,37.90
2023-04-21T10:55:53.181Z,39.31
2023-04-21T10:56:56.132Z,37.23
2023-04-21T10:57:59.380Z,37.44
2023-04-21T10:59:01.414Z,39.60
2023-04-21T11:00:07.241Z,39.36
2023-04-21T11:01:09.151Z,37.54
2023-04-21T11:02:15.162Z,36.90
2023-04-21T11:03:17.282Z,36.73
2023-04-21T11:04:22.195Z,36.63
2023-04-21T11:05:31.812Z,36.64
2023-04-21T11:06:33.656Z,35.68
2023-04-21T11:07:35.580Z,37.11
2023-04-21T11:08:54.891Z,37.36
2023-04-21T11:09:58.312Z,36.36
2023-04-21T11:11:00.144Z,37.31
2023-04-21T11:12:05.106Z,36.98
2023-04-21T11:13:08.063Z,36.62
2023-04-21T11:14:09.877Z,36.11
2023-04-21T11:15:13.584Z,36.63
2023-04-21T11:16:15.476Z,37.02
2023-04-21T11:17:18.336Z,35.41
2023-04-21T11:18:20.064Z,36.33
2023-04-21T11:19:26.153Z,36.23
2023-04-21T11:20:28.050Z,36.62
2023-04-21T11:21:30.329Z,37.04
2023-04-21T11:22:32.902Z,36.47
2023-04-21T11:23:34.727Z,36.45
2023-04-21T11:24:36.693Z,36.92
2023-04-21T11:25:38.525Z,37.60
2023-04-21T11:26:41.247Z,36.02
2023-04-21T11:27:43.036Z,36.12
2023-04-21T11:28:47.816Z,35.92
2023-04-21T11:29:50.551Z,35.48
2023-04-21T11:30:52.467Z,36.67
2023-04-21T11:31:54.596Z,36.00
2023-04-21T11:32:56.480Z,36.25
2023-04-21T11:34:01.326Z,37.25
2023-04-21T11:35:04.023Z,35.78
2023-04-21T11:36:08.974Z,36.23
2023-04-21T11:37:14.331Z,35.26
2023-04-21T11:38:17.134Z,36.37
2023-04-21T11:39:22.507Z,36.29
2023-04-21T11:40:24.563Z,37.21
2023-04-21T11:41:26.359Z,35.60
2023-04-21T11:42:28.525Z,35.80
2023-04-21T11:43:30.963Z,34.69
2023-04-21T11:44:33.807Z,33.47
2023-04-21T11:45:35.576Z,36.09
2023-04-21T11:46:37.765Z,36.45
2023-04-21T11:47:40.175Z,34.87
2023-04-21T11:48:43.425Z,35.25
2023-04-21T11:49:50.844Z,36.39
2023-04-21T11:50:52.647Z,34.17
2023-04-21T11:51:54.459Z,34.62
2023-04-21T11:52:56.423Z,35.35
2023-04-21T11:53:59.083Z,35.29
2023-04-21T11:55:01.961Z,33.81
2023-04-21T11:56:03.817Z,35.21
2023-04-21T11:57:06.420Z,34.12
2023-04-21T11:58:08.141Z,34.35
2023-04-21T11:59:14.527Z,34.64
2023-04-21T12:00:16.684Z,35.04
2023-04-21T12:01:19.350Z,33.72
2023-04-21T12:02:23.138Z,34.24
2023-04-21T12:03:26.589Z,35.28
2023-04-21T12:04:29.898Z,34.23
2023-04-21T12:05:36.471Z,35.99
2023-04-21T12:06:38.272Z,33.68
2023-04-21T12:07:48.150Z,34.50
2023-04-21T12:08:54.882Z,33.97
2023-04-21T12:09:56.716Z,34.17
2023-04-21T12:10:59.581Z,34.08
2023-04-21T12:12:05.406Z,34.55
2023-04-21T12:13:07.177Z,34.64
2023-04-21T12:14:09.052Z,34.85
2023-04-21T12:15:12.323Z,34.38
2023-04-21T12:16:14.123Z,35.29
2023-04-21T12:17:15.910Z,32.94
2023-04-21T12:18:17.722Z,33.62
2023-04-21T12:19:26.762Z,34.91
2023-04-21T12:20:29.924Z,35.37
2023-04-21T12:21:32.176Z,36.62
2023-04-21T12:22:34.072Z,34.37
2023-04-21T12:23:35.879Z,33.16
2023-04-21T12:24:38.254Z,34.16
2023-04-21T12:25:40.055Z,33.71
2023-04-21T12:26:42.366Z,32.86
2023-04-21T12:27:51.425Z,33.05
2023-04-21T12:28:53.559Z,34.59
2023-04-21T12:29:55.494Z,34.67
2023-04-21T12:30:57.256Z,34.69
2023-04-21T12:31:59.377Z,32.71
2023-04-21T12:33:01.586Z,33.77
2023-04-21T12:34:03.967Z,34.10
2023-04-21T12:35:06.030Z,32.99
2023-04-21T12:36:08.792Z,33.64
2023-04-21T12:37:11.780Z,32.41
2023-04-21T12:38:13.565Z,32.50
2023-04-21T12:39:17.488Z,32.55
2023-04-21T12:40:19.328Z,32.90
2023-04-21T12:41:21.675Z,33.46
2023-04-21T12:42:24.033Z,33.06
2023-04-21T12:43:25.843Z,33.08
2023-04-21T12:44:27.742Z,33.29
2023-04-21T12:45:29.621Z,33.36
2023-04-21T12:46:31.764Z,34.21
2023-04-21T12:47:33.713Z,32.82
2023-04-21T12:48:36.547Z,33.11
2023-04-21T12:49:38.394Z,33.00
2023-04-21T12:50:40.243Z,33.19
2023-04-21T12:51:42.039Z,32.51
2023-04-21T12:52:43.928Z,32.79
2023-04-21T12:53:46.850Z,31.96
2023-04-21T12:54:48.699Z,31.96
2023-04-21T12:56:01.335Z,32.20
2023-04-21T12:57:06.832Z,33.38
2023-04-21T12:58:08.920Z,33.79
2023-04-21T12:59:11.128Z,31.79
2023-04-21T13:00:15.109Z,31.92
2023-04-21T13:01:17.007Z,32.22
2023-04-21T13:02:19.034Z,31.94
2023-04-21T13:03:21.336Z,32.92
2023-04-21T13:04:23.501Z,32.12
2023-04-21T13:05:25.799Z,32.39
2023-04-21T13:06:28.483Z,33.04
2023-04-21T13:07:31.862Z,33.82
2023-04-21T13:08:33.773Z,32.65
2023-04-21T13:09:35.631Z,32.75
2023-04-21T13:10:37.346Z,32.34
2023-04-21T13:11:39.136Z,32.19
2023-04-21T13:12:41.698Z,32.29
2023-04-21T13:13:43.536Z,33.04
2023-04-21T13:14:45.400Z,31.37
2023-04-21T13:15:47.290Z,31.56
2023-04-21T13:16:49.169Z,32.51
2023-04-21T13:17:51.058Z,32.10
2023-04-21T13:18:52.929Z,31.34
2023-04-21T13:19:54.955Z,31.31
2023-04-21T13:20:56.837Z,32.08
2023-04-21T13:21:58.599Z,33.13
2023-04-21T13:23:00.462Z,32.93
2023-04-21T13:24:03.179Z,33.68
2023-04-21T13:25:05.259Z,33.04
2023-04-21T13:26:07.268Z,33.49
2023-04-21T13:27:09.221Z,33.39
2023-04-21T13:28:10.984Z,34.08
2023-04-21T13:29:12.826Z,35.07
2023-04-21T13:30:15.029Z,34.52
2023-04-21T13:31:16.948Z,34.16
2023-04-21T13:32:18.765Z,32.93